UKLR/RWN METAR and TAF weather

Enter ICAO airport designator
Station Type Date Time Source
UKLR METAR 2020/01/28 11:30 UTC NOAA

UKLR 281130Z 19004MPS CAVOK 08/01 Q1006 NOSIG


Station Type Date Time Source
UKLR Decoded METAR 2020/01/28 11:30 UTC NOAA

Rivne, Ukraine (UKLR) 50-35N 026-08E
Jan 28, 2020 - 06:30 AM EST / 2020.01.28 1130 UTC
Wind: from the S (190 degrees) at 9 MPH (8 KT):0
Visibility: greater than 7 mile(s):0
Temperature: 46 F (8 C)
Dew Point: 33 F (1 C)
Relative Humidity: 61%
Pressure (altimeter): 29.71 in. Hg (1006 hPa)
ob: UKLR 281130Z 19004MPS CAVOK 08/01 Q1006 NOSIG
cycle: 11

Station Type Date Time Source
UKLR TAF 2019/08/16 12:15 UTC NOAA

TAF TAF UKLR 161105Z 1612/1821 35003MPS 9999 BKN020 SCT023CB

Example: see airport list